Pearlington, Mississippi
Current Conditions -  °F | °C
As of 7:50 PM on Saturday 20 Dec 2014 (Local Time) from KHSA Reporting Station
Overcast Overcast  
Wind Chill: 52°   Ceiling: 1500
Heat Index: 52°   Visibility: 7mi
Dew Point: 45°   Wind: 12mph
Humidity: 76%   Direction: 10°N
Pressure: 30.16"   Gusts: NA
Location:  30.25°N, 89.6°W
Report Text: KHSA 210150Z 01010KT 7SM OVC015 11/07 A3016
Loading
Personal Weather Stations






























Interactive Weather Map New forecast layout! Learn more

10-Day Weather Forecast

Advertisements
Track Severe Weather on mobile